sensor_id;sensor_type;location;lat;lon;timestamp;P1;durP1;ratioP1;P2;durP2;ratioP2
77384;SDS011;66443;49.122;8.346;2023-05-25T00:00:31;7.17;;;4.17;;
77384;SDS011;66443;49.122;8.346;2023-05-25T00:02:57;5.17;;;4.30;;
77384;SDS011;66443;49.122;8.346;2023-05-25T00:05:23;6.70;;;4.60;;
77384;SDS011;66443;49.122;8.346;2023-05-25T00:07:51;9.30;;;4.87;;
77384;SDS011;66443;49.122;8.346;2023-05-25T00:10:16;7.43;;;4.67;;
77384;SDS011;66443;49.122;8.346;2023-05-25T00:12:41;8.17;;;5.03;;
77384;SDS011;66443;49.122;8.346;2023-05-25T00:15:07;8.23;;;4.77;;
77384;SDS011;66443;49.122;8.346;2023-05-25T00:17:32;8.03;;;5.00;;
77384;SDS011;66443;49.122;8.346;2023-05-25T00:19:57;8.87;;;4.77;;
77384;SDS011;66443;49.122;8.346;2023-05-25T00:22:31;6.93;;;4.37;;
77384;SDS011;66443;49.122;8.346;2023-05-25T00:24:58;8.90;;;4.47;;
77384;SDS011;66443;49.122;8.346;2023-05-25T00:27:23;4.90;;;4.50;;
77384;SDS011;66443;49.122;8.346;2023-05-25T00:29:49;8.97;;;4.40;;
77384;SDS011;66443;49.122;8.346;2023-05-25T00:32:14;8.20;;;4.27;;
77384;SDS011;66443;49.122;8.346;2023-05-25T00:34:40;5.53;;;3.90;;
77384;SDS011;66443;49.122;8.346;2023-05-25T00:37:05;7.07;;;4.63;;
77384;SDS011;66443;49.122;8.346;2023-05-25T00:39:31;10.17;;;3.90;;
77384;SDS011;66443;49.122;8.346;2023-05-25T00:41:56;11.00;;;4.27;;
77384;SDS011;66443;49.122;8.346;2023-05-25T00:44:22;6.30;;;3.73;;
77384;SDS011;66443;49.122;8.346;2023-05-25T00:46:50;6.57;;;4.00;;
77384;SDS011;66443;49.122;8.346;2023-05-25T00:49:16;5.70;;;4.20;;
77384;SDS011;66443;49.122;8.346;2023-05-25T00:51:41;6.67;;;4.17;;
77384;SDS011;66443;49.122;8.346;2023-05-25T00:54:10;6.13;;;3.97;;
77384;SDS011;66443;49.122;8.346;2023-05-25T00:56:38;7.87;;;4.00;;
77384;SDS011;66443;49.122;8.346;2023-05-25T00:59:05;8.27;;;4.30;;
77384;SDS011;66443;49.122;8.346;2023-05-25T01:01:32;6.77;;;3.90;;
77384;SDS011;66443;49.122;8.346;2023-05-25T01:04:03;8.80;;;4.53;;
77384;SDS011;66443;49.122;8.346;2023-05-25T01:06:31;7.43;;;4.00;;
77384;SDS011;66443;49.122;8.346;2023-05-25T01:08:58;6.80;;;4.03;;
77384;SDS011;66443;49.122;8.346;2023-05-25T01:11:25;10.40;;;4.00;;
77384;SDS011;66443;49.122;8.346;2023-05-25T01:13:52;4.07;;;3.57;;
77384;SDS011;66443;49.122;8.346;2023-05-25T01:16:18;6.30;;;4.00;;
77384;SDS011;66443;49.122;8.346;2023-05-25T01:18:44;12.00;;;4.50;;
77384;SDS011;66443;49.122;8.346;2023-05-25T01:21:16;9.10;;;4.30;;
77384;SDS011;66443;49.122;8.346;2023-05-25T01:23:50;8.90;;;5.00;;
77384;SDS011;66443;49.122;8.346;2023-05-25T01:26:17;6.27;;;3.53;;
77384;SDS011;66443;49.122;8.346;2023-05-25T01:28:43;10.97;;;4.37;;
77384;SDS011;66443;49.122;8.346;2023-05-25T01:31:10;6.90;;;5.53;;
77384;SDS011;66443;49.122;8.346;2023-05-25T01:33:36;4.67;;;3.90;;
77384;SDS011;66443;49.122;8.346;2023-05-25T01:36:02;6.23;;;4.43;;
77384;SDS011;66443;49.122;8.346;2023-05-25T01:38:28;8.97;;;4.27;;
77384;SDS011;66443;49.122;8.346;2023-05-25T01:40:53;7.20;;;4.60;;
77384;SDS011;66443;49.122;8.346;2023-05-25T01:43:18;11.10;;;5.10;;
77384;SDS011;66443;49.122;8.346;2023-05-25T01:45:43;7.90;;;4.40;;
77384;SDS011;66443;49.122;8.346;2023-05-25T01:48:20;7.80;;;4.93;;
77384;SDS011;66443;49.122;8.346;2023-05-25T01:53:15;8.93;;;4.57;;
77384;SDS011;66443;49.122;8.346;2023-05-25T01:55:44;18.73;;;4.80;;
77384;SDS011;66443;49.122;8.346;2023-05-25T01:58:10;11.20;;;4.13;;
77384;SDS011;66443;49.122;8.346;2023-05-25T02:00:37;8.50;;;4.80;;
77384;SDS011;66443;49.122;8.346;2023-05-25T02:03:03;7.03;;;4.83;;
77384;SDS011;66443;49.122;8.346;2023-05-25T02:05:28;10.80;;;4.73;;
77384;SDS011;66443;49.122;8.346;2023-05-25T02:07:53;7.83;;;4.27;;
77384;SDS011;66443;49.122;8.346;2023-05-25T02:10:19;11.53;;;5.37;;
77384;SDS011;66443;49.122;8.346;2023-05-25T02:12:44;10.80;;;5.80;;
77384;SDS011;66443;49.122;8.346;2023-05-25T02:15:10;12.90;;;5.23;;
77384;SDS011;66443;49.122;8.346;2023-05-25T02:17:35;9.67;;;4.63;;
77384;SDS011;66443;49.122;8.346;2023-05-25T02:20:01;7.47;;;4.83;;
77384;SDS011;66443;49.122;8.346;2023-05-25T02:22:26;11.17;;;5.33;;
77384;SDS011;66443;49.122;8.346;2023-05-25T02:24:51;14.00;;;5.30;;
77384;SDS011;66443;49.122;8.346;2023-05-25T02:27:16;8.35;;;5.18;;
77384;SDS011;66443;49.122;8.346;2023-05-25T02:29:42;7.87;;;4.90;;
77384;SDS011;66443;49.122;8.346;2023-05-25T02:32:07;6.60;;;4.53;;
77384;SDS011;66443;49.122;8.346;2023-05-25T02:34:32;11.13;;;4.80;;
77384;SDS011;66443;49.122;8.346;2023-05-25T02:36:57;8.02;;;4.57;;
77384;SDS011;66443;49.122;8.346;2023-05-25T02:39:22;8.77;;;5.63;;
77384;SDS011;66443;49.122;8.346;2023-05-25T02:41:50;8.40;;;5.13;;
77384;SDS011;66443;49.122;8.346;2023-05-25T02:44:15;6.73;;;4.70;;
77384;SDS011;66443;49.122;8.346;2023-05-25T02:46:40;7.10;;;5.13;;
77384;SDS011;66443;49.122;8.346;2023-05-25T02:49:05;10.77;;;4.60;;
77384;SDS011;66443;49.122;8.346;2023-05-25T02:51:30;10.23;;;5.27;;
77384;SDS011;66443;49.122;8.346;2023-05-25T02:53:56;14.23;;;4.83;;
77384;SDS011;66443;49.122;8.346;2023-05-25T02:56:21;9.57;;;5.80;;
77384;SDS011;66443;49.122;8.346;2023-05-25T02:58:47;11.47;;;5.13;;
77384;SDS011;66443;49.122;8.346;2023-05-25T03:01:12;9.67;;;5.27;;
77384;SDS011;66443;49.122;8.346;2023-05-25T03:03:42;10.83;;;5.93;;
77384;SDS011;66443;49.122;8.346;2023-05-25T03:06:07;8.90;;;5.03;;
77384;SDS011;66443;49.122;8.346;2023-05-25T03:08:32;8.47;;;4.47;;
77384;SDS011;66443;49.122;8.346;2023-05-25T03:10:57;14.60;;;5.20;;
77384;SDS011;66443;49.122;8.346;2023-05-25T03:13:22;10.87;;;5.23;;
77384;SDS011;66443;49.122;8.346;2023-05-25T03:15:47;8.27;;;4.97;;
77384;SDS011;66443;49.122;8.346;2023-05-25T03:18:13;9.40;;;5.07;;
77384;SDS011;66443;49.122;8.346;2023-05-25T03:20:38;9.40;;;5.07;;
77384;SDS011;66443;49.122;8.346;2023-05-25T03:23:05;9.33;;;4.93;;
77384;SDS011;66443;49.122;8.346;2023-05-25T03:25:30;6.27;;;4.80;;
77384;SDS011;66443;49.122;8.346;2023-05-25T03:27:55;8.63;;;4.90;;
77384;SDS011;66443;49.122;8.346;2023-05-25T03:30:22;8.47;;;5.27;;
77384;SDS011;66443;49.122;8.346;2023-05-25T03:32:47;9.83;;;5.33;;
77384;SDS011;66443;49.122;8.346;2023-05-25T03:35:12;10.57;;;5.05;;
77384;SDS011;66443;49.122;8.346;2023-05-25T03:37:37;9.20;;;4.93;;
77384;SDS011;66443;49.122;8.346;2023-05-25T03:40:03;9.70;;;4.80;;
77384;SDS011;66443;49.122;8.346;2023-05-25T03:42:28;13.07;;;4.93;;
77384;SDS011;66443;49.122;8.346;2023-05-25T03:44:53;10.00;;;5.03;;
77384;SDS011;66443;49.122;8.346;2023-05-25T03:47:19;7.50;;;4.83;;
77384;SDS011;66443;49.122;8.346;2023-05-25T03:49:44;7.17;;;4.73;;
77384;SDS011;66443;49.122;8.346;2023-05-25T03:52:09;6.67;;;5.20;;
77384;SDS011;66443;49.122;8.346;2023-05-25T03:54:34;8.00;;;5.47;;
77384;SDS011;66443;49.122;8.346;2023-05-25T03:56:59;8.97;;;5.30;;
77384;SDS011;66443;49.122;8.346;2023-05-25T03:59:26;6.80;;;4.90;;
77384;SDS011;66443;49.122;8.346;2023-05-25T04:01:51;7.80;;;4.97;;
77384;SDS011;66443;49.122;8.346;2023-05-25T04:04:16;6.17;;;4.80;;
77384;SDS011;66443;49.122;8.346;2023-05-25T04:06:42;8.80;;;5.30;;
77384;SDS011;66443;49.122;8.346;2023-05-25T04:09:09;9.03;;;4.80;;
77384;SDS011;66443;49.122;8.346;2023-05-25T04:11:35;5.57;;;4.87;;
77384;SDS011;66443;49.122;8.346;2023-05-25T04:14:00;10.10;;;4.73;;
77384;SDS011;66443;49.122;8.346;2023-05-25T04:16:26;9.20;;;5.27;;
77384;SDS011;66443;49.122;8.346;2023-05-25T04:18:51;7.23;;;4.53;;
77384;SDS011;66443;49.122;8.346;2023-05-25T04:21:16;8.40;;;5.10;;
77384;SDS011;66443;49.122;8.346;2023-05-25T04:23:41;9.60;;;6.20;;
77384;SDS011;66443;49.122;8.346;2023-05-25T04:26:07;6.30;;;5.27;;
77384;SDS011;66443;49.122;8.346;2023-05-25T04:28:34;5.73;;;4.43;;
77384;SDS011;66443;49.122;8.346;2023-05-25T04:30:59;13.67;;;5.97;;
77384;SDS011;66443;49.122;8.346;2023-05-25T04:33:25;14.63;;;4.80;;
77384;SDS011;66443;49.122;8.346;2023-05-25T04:35:53;11.17;;;5.00;;
77384;SDS011;66443;49.122;8.346;2023-05-25T04:38:18;9.80;;;4.70;;
77384;SDS011;66443;49.122;8.346;2023-05-25T04:40:44;6.97;;;4.33;;
77384;SDS011;66443;49.122;8.346;2023-05-25T04:43:10;12.83;;;4.77;;
77384;SDS011;66443;49.122;8.346;2023-05-25T04:45:37;6.73;;;4.33;;
77384;SDS011;66443;49.122;8.346;2023-05-25T04:48:03;9.23;;;4.60;;
77384;SDS011;66443;49.122;8.346;2023-05-25T04:50:28;9.27;;;5.00;;
77384;SDS011;66443;49.122;8.346;2023-05-25T04:52:53;7.83;;;4.53;;
77384;SDS011;66443;49.122;8.346;2023-05-25T04:55:19;7.73;;;4.77;;
77384;SDS011;66443;49.122;8.346;2023-05-25T04:57:44;9.87;;;5.20;;
77384;SDS011;66443;49.122;8.346;2023-05-25T05:00:09;11.60;;;5.17;;
77384;SDS011;66443;49.122;8.346;2023-05-25T05:02:36;9.57;;;5.47;;
77384;SDS011;66443;49.122;8.346;2023-05-25T05:05:01;6.03;;;4.93;;
77384;SDS011;66443;49.122;8.346;2023-05-25T05:07:27;9.80;;;4.53;;
77384;SDS011;66443;49.122;8.346;2023-05-25T05:09:53;5.93;;;4.83;;
77384;SDS011;66443;49.122;8.346;2023-05-25T05:12:18;12.33;;;5.33;;
77384;SDS011;66443;49.122;8.346;2023-05-25T05:14:43;11.10;;;4.60;;
77384;SDS011;66443;49.122;8.346;2023-05-25T05:17:08;9.83;;;4.37;;
77384;SDS011;66443;49.122;8.346;2023-05-25T05:19:34;8.47;;;4.73;;
77384;SDS011;66443;49.122;8.346;2023-05-25T05:21:59;11.37;;;4.70;;
77384;SDS011;66443;49.122;8.346;2023-05-25T05:24:24;9.47;;;4.40;;
77384;SDS011;66443;49.122;8.346;2023-05-25T05:26:50;6.83;;;4.73;;
77384;SDS011;66443;49.122;8.346;2023-05-25T05:29:15;9.53;;;4.87;;
77384;SDS011;66443;49.122;8.346;2023-05-25T05:31:43;11.97;;;4.50;;
77384;SDS011;66443;49.122;8.346;2023-05-25T05:34:09;5.57;;;5.07;;
77384;SDS011;66443;49.122;8.346;2023-05-25T05:36:34;6.57;;;3.63;;
77384;SDS011;66443;49.122;8.346;2023-05-25T05:38:59;7.68;;;4.32;;
77384;SDS011;66443;49.122;8.346;2023-05-25T05:41:25;5.63;;;4.60;;
77384;SDS011;66443;49.122;8.346;2023-05-25T05:43:51;6.93;;;4.53;;
77384;SDS011;66443;49.122;8.346;2023-05-25T05:46:16;8.10;;;4.20;;
77384;SDS011;66443;49.122;8.346;2023-05-25T05:48:41;10.53;;;4.60;;
77384;SDS011;66443;49.122;8.346;2023-05-25T05:51:07;7.83;;;4.37;;
77384;SDS011;66443;49.122;8.346;2023-05-25T05:53:32;11.40;;;6.73;;
77384;SDS011;66443;49.122;8.346;2023-05-25T05:55:59;7.20;;;4.50;;
77384;SDS011;66443;49.122;8.346;2023-05-25T05:58:25;9.60;;;3.87;;
77384;SDS011;66443;49.122;8.346;2023-05-25T06:00:51;9.87;;;4.37;;
77384;SDS011;66443;49.122;8.346;2023-05-25T06:03:16;8.13;;;4.00;;
77384;SDS011;66443;49.122;8.346;2023-05-25T06:05:41;8.17;;;4.07;;
77384;SDS011;66443;49.122;8.346;2023-05-25T06:08:07;8.00;;;3.78;;
77384;SDS011;66443;49.122;8.346;2023-05-25T06:10:34;8.37;;;5.03;;
77384;SDS011;66443;49.122;8.346;2023-05-25T06:12:59;7.43;;;4.00;;
77384;SDS011;66443;49.122;8.346;2023-05-25T06:15:24;6.67;;;4.90;;
77384;SDS011;66443;49.122;8.346;2023-05-25T06:17:49;6.57;;;4.23;;
77384;SDS011;66443;49.122;8.346;2023-05-25T06:20:14;9.63;;;4.80;;
77384;SDS011;66443;49.122;8.346;2023-05-25T06:22:39;13.90;;;4.73;;
77384;SDS011;66443;49.122;8.346;2023-05-25T06:25:05;9.67;;;4.47;;
77384;SDS011;66443;49.122;8.346;2023-05-25T06:27:30;5.90;;;4.37;;
77384;SDS011;66443;49.122;8.346;2023-05-25T06:29:55;10.07;;;3.87;;
77384;SDS011;66443;49.122;8.346;2023-05-25T06:32:20;13.63;;;4.97;;
77384;SDS011;66443;49.122;8.346;2023-05-25T06:34:46;7.37;;;3.83;;
77384;SDS011;66443;49.122;8.346;2023-05-25T06:37:11;8.00;;;4.32;;
77384;SDS011;66443;49.122;8.346;2023-05-25T06:39:36;7.77;;;4.07;;
77384;SDS011;66443;49.122;8.346;2023-05-25T06:42:01;5.93;;;4.27;;
77384;SDS011;66443;49.122;8.346;2023-05-25T06:44:26;9.03;;;4.10;;
77384;SDS011;66443;49.122;8.346;2023-05-25T06:46:51;10.40;;;4.15;;
77384;SDS011;66443;49.122;8.346;2023-05-25T06:49:17;9.37;;;4.17;;
77384;SDS011;66443;49.122;8.346;2023-05-25T06:51:42;8.73;;;3.70;;
77384;SDS011;66443;49.122;8.346;2023-05-25T06:54:07;9.17;;;3.67;;
77384;SDS011;66443;49.122;8.346;2023-05-25T06:56:32;7.10;;;4.13;;
77384;SDS011;66443;49.122;8.346;2023-05-25T06:58:57;6.43;;;3.80;;
77384;SDS011;66443;49.122;8.346;2023-05-25T07:01:23;9.63;;;4.38;;
77384;SDS011;66443;49.122;8.346;2023-05-25T07:03:48;7.83;;;3.90;;
77384;SDS011;66443;49.122;8.346;2023-05-25T07:06:13;5.93;;;3.67;;
77384;SDS011;66443;49.122;8.346;2023-05-25T07:08:39;7.40;;;4.37;;
77384;SDS011;66443;49.122;8.346;2023-05-25T07:11:04;8.43;;;3.40;;
77384;SDS011;66443;49.122;8.346;2023-05-25T07:13:29;7.47;;;4.70;;
77384;SDS011;66443;49.122;8.346;2023-05-25T07:15:54;5.87;;;3.90;;
77384;SDS011;66443;49.122;8.346;2023-05-25T07:18:20;7.50;;;4.00;;
77384;SDS011;66443;49.122;8.346;2023-05-25T07:20:45;7.03;;;4.10;;
77384;SDS011;66443;49.122;8.346;2023-05-25T07:23:12;6.13;;;3.67;;
77384;SDS011;66443;49.122;8.346;2023-05-25T07:25:37;7.07;;;3.60;;
77384;SDS011;66443;49.122;8.346;2023-05-25T07:28:03;8.83;;;4.10;;
77384;SDS011;66443;49.122;8.346;2023-05-25T07:30:28;10.10;;;4.57;;
77384;SDS011;66443;49.122;8.346;2023-05-25T07:32:53;6.87;;;3.80;;
77384;SDS011;66443;49.122;8.346;2023-05-25T07:35:18;7.67;;;3.60;;
77384;SDS011;66443;49.122;8.346;2023-05-25T07:37:43;7.63;;;4.20;;
77384;SDS011;66443;49.122;8.346;2023-05-25T07:40:09;8.27;;;4.47;;
77384;SDS011;66443;49.122;8.346;2023-05-25T07:42:34;6.13;;;3.60;;
77384;SDS011;66443;49.122;8.346;2023-05-25T07:45:00;8.80;;;3.53;;
77384;SDS011;66443;49.122;8.346;2023-05-25T07:47:25;10.43;;;4.20;;
77384;SDS011;66443;49.122;8.346;2023-05-25T07:49:50;5.83;;;3.43;;
77384;SDS011;66443;49.122;8.346;2023-05-25T07:52:16;6.67;;;4.30;;
77384;SDS011;66443;49.122;8.346;2023-05-25T07:54:42;7.00;;;4.17;;
77384;SDS011;66443;49.122;8.346;2023-05-25T07:57:08;5.87;;;4.97;;
77384;SDS011;66443;49.122;8.346;2023-05-25T07:59:33;6.03;;;3.60;;
77384;SDS011;66443;49.122;8.346;2023-05-25T08:01:58;6.33;;;3.67;;
77384;SDS011;66443;49.122;8.346;2023-05-25T08:04:23;6.70;;;3.73;;
77384;SDS011;66443;49.122;8.346;2023-05-25T08:06:49;6.57;;;3.43;;
77384;SDS011;66443;49.122;8.346;2023-05-25T08:09:14;7.33;;;4.00;;
77384;SDS011;66443;49.122;8.346;2023-05-25T08:11:39;9.13;;;4.40;;
77384;SDS011;66443;49.122;8.346;2023-05-25T08:14:05;10.40;;;4.33;;
77384;SDS011;66443;49.122;8.346;2023-05-25T08:16:30;6.00;;;4.00;;
77384;SDS011;66443;49.122;8.346;2023-05-25T08:18:55;10.43;;;4.20;;
77384;SDS011;66443;49.122;8.346;2023-05-25T08:21:20;7.10;;;4.00;;
77384;SDS011;66443;49.122;8.346;2023-05-25T08:23:45;7.07;;;4.27;;
77384;SDS011;66443;49.122;8.346;2023-05-25T08:26:11;8.80;;;4.13;;
77384;SDS011;66443;49.122;8.346;2023-05-25T08:28:36;6.23;;;4.40;;
77384;SDS011;66443;49.122;8.346;2023-05-25T08:31:02;6.20;;;4.47;;
77384;SDS011;66443;49.122;8.346;2023-05-25T08:33:27;6.27;;;3.70;;
77384;SDS011;66443;49.122;8.346;2023-05-25T08:35:52;11.37;;;4.27;;
77384;SDS011;66443;49.122;8.346;2023-05-25T08:38:18;7.17;;;3.97;;
77384;SDS011;66443;49.122;8.346;2023-05-25T08:40:44;6.43;;;4.10;;
77384;SDS011;66443;49.122;8.346;2023-05-25T08:43:09;5.70;;;4.07;;
77384;SDS011;66443;49.122;8.346;2023-05-25T08:45:34;6.27;;;4.07;;
77384;SDS011;66443;49.122;8.346;2023-05-25T08:47:59;12.73;;;4.27;;
77384;SDS011;66443;49.122;8.346;2023-05-25T08:50:28;7.97;;;4.47;;
77384;SDS011;66443;49.122;8.346;2023-05-25T08:52:54;7.47;;;4.43;;
77384;SDS011;66443;49.122;8.346;2023-05-25T08:55:21;8.13;;;4.60;;
77384;SDS011;66443;49.122;8.346;2023-05-25T08:57:51;5.87;;;3.77;;
77384;SDS011;66443;49.122;8.346;2023-05-25T09:00:19;8.90;;;4.90;;
77384;SDS011;66443;49.122;8.346;2023-05-25T09:05:31;6.57;;;4.53;;
77384;SDS011;66443;49.122;8.346;2023-05-25T09:07:56;7.13;;;4.60;;
77384;SDS011;66443;49.122;8.346;2023-05-25T09:10:22;7.63;;;4.43;;
77384;SDS011;66443;49.122;8.346;2023-05-25T09:12:48;6.60;;;3.60;;
77384;SDS011;66443;49.122;8.346;2023-05-25T09:15:15;6.37;;;3.97;;
77384;SDS011;66443;49.122;8.346;2023-05-25T09:17:40;7.20;;;4.00;;
77384;SDS011;66443;49.122;8.346;2023-05-25T09:20:07;8.10;;;4.30;;
77384;SDS011;66443;49.122;8.346;2023-05-25T09:22:33;9.40;;;4.40;;
77384;SDS011;66443;49.122;8.346;2023-05-25T09:24:59;9.17;;;4.57;;
77384;SDS011;66443;49.122;8.346;2023-05-25T09:27:24;5.57;;;4.13;;
77384;SDS011;66443;49.122;8.346;2023-05-25T09:29:50;8.18;;;4.15;;
77384;SDS011;66443;49.122;8.346;2023-05-25T09:32:16;7.50;;;4.03;;
77384;SDS011;66443;49.122;8.346;2023-05-25T09:34:42;8.60;;;4.33;;
77384;SDS011;66443;49.122;8.346;2023-05-25T09:37:11;7.13;;;4.33;;
77384;SDS011;66443;49.122;8.346;2023-05-25T09:39:37;7.93;;;3.93;;
77384;SDS011;66443;49.122;8.346;2023-05-25T09:42:03;5.40;;;3.73;;
77384;SDS011;66443;49.122;8.346;2023-05-25T09:44:30;7.83;;;3.97;;
77384;SDS011;66443;49.122;8.346;2023-05-25T09:46:55;7.60;;;4.00;;
77384;SDS011;66443;49.122;8.346;2023-05-25T09:49:20;7.77;;;4.30;;
77384;SDS011;66443;49.122;8.346;2023-05-25T09:51:46;6.37;;;4.07;;
77384;SDS011;66443;49.122;8.346;2023-05-25T09:54:11;8.20;;;3.90;;
77384;SDS011;66443;49.122;8.346;2023-05-25T09:56:36;7.23;;;4.50;;
77384;SDS011;66443;49.122;8.346;2023-05-25T09:59:02;6.67;;;4.53;;
77384;SDS011;66443;49.122;8.346;2023-05-25T10:01:27;10.37;;;4.30;;
77384;SDS011;66443;49.122;8.346;2023-05-25T10:03:53;5.93;;;4.20;;
77384;SDS011;66443;49.122;8.346;2023-05-25T10:06:20;8.43;;;4.87;;
77384;SDS011;66443;49.122;8.346;2023-05-25T10:08:46;7.67;;;4.33;;
77384;SDS011;66443;49.122;8.346;2023-05-25T10:11:12;4.83;;;3.70;;
77384;SDS011;66443;49.122;8.346;2023-05-25T10:13:38;10.73;;;4.40;;
77384;SDS011;66443;49.122;8.346;2023-05-25T10:16:04;7.43;;;3.93;;
77384;SDS011;66443;49.122;8.346;2023-05-25T10:18:29;6.83;;;4.20;;
77384;SDS011;66443;49.122;8.346;2023-05-25T10:20:59;9.07;;;4.47;;
77384;SDS011;66443;49.122;8.346;2023-05-25T10:23:25;6.77;;;4.50;;
77384;SDS011;66443;49.122;8.346;2023-05-25T10:25:56;6.07;;;3.90;;
77384;SDS011;66443;49.122;8.346;2023-05-25T10:28:30;5.40;;;4.07;;
77384;SDS011;66443;49.122;8.346;2023-05-25T10:30:59;5.43;;;3.43;;
77384;SDS011;66443;49.122;8.346;2023-05-25T10:33:24;7.07;;;4.13;;
77384;SDS011;66443;49.122;8.346;2023-05-25T10:35:50;6.00;;;4.10;;
77384;SDS011;66443;49.122;8.346;2023-05-25T10:38:15;7.97;;;4.23;;
77384;SDS011;66443;49.122;8.346;2023-05-25T10:40:42;5.50;;;3.97;;
77384;SDS011;66443;49.122;8.346;2023-05-25T10:43:08;5.63;;;4.10;;
77384;SDS011;66443;49.122;8.346;2023-05-25T10:45:33;5.33;;;4.33;;
77384;SDS011;66443;49.122;8.346;2023-05-25T10:47:59;7.50;;;3.97;;
77384;SDS011;66443;49.122;8.346;2023-05-25T10:50:25;7.07;;;3.90;;
77384;SDS011;66443;49.122;8.346;2023-05-25T10:53:06;7.40;;;4.23;;
77384;SDS011;66443;49.122;8.346;2023-05-25T10:55:41;4.47;;;3.93;;
77384;SDS011;66443;49.122;8.346;2023-05-25T10:58:08;4.97;;;4.03;;
77384;SDS011;66443;49.122;8.346;2023-05-25T11:00:34;7.53;;;4.03;;
77384;SDS011;66443;49.122;8.346;2023-05-25T11:02:59;5.57;;;4.30;;
77384;SDS011;66443;49.122;8.346;2023-05-25T11:07:53;7.47;;;4.13;;
77384;SDS011;66443;49.122;8.346;2023-05-25T11:10:40;5.43;;;3.60;;
77384;SDS011;66443;49.122;8.346;2023-05-25T11:13:48;9.60;;;4.37;;
77384;SDS011;66443;49.122;8.346;2023-05-25T11:18:36;5.67;;;4.30;;
77384;SDS011;66443;49.122;8.346;2023-05-25T11:21:15;5.97;;;4.13;;
77384;SDS011;66443;49.122;8.346;2023-05-25T11:26:20;5.67;;;3.90;;
77384;SDS011;66443;49.122;8.346;2023-05-25T11:28:49;5.97;;;4.30;;
77384;SDS011;66443;49.122;8.346;2023-05-25T11:31:15;5.00;;;4.27;;
77384;SDS011;66443;49.122;8.346;2023-05-25T11:33:41;8.27;;;4.43;;
77384;SDS011;66443;49.122;8.346;2023-05-25T11:36:08;4.77;;;4.20;;
77384;SDS011;66443;49.122;8.346;2023-05-25T11:38:35;3.80;;;3.50;;
77384;SDS011;66443;49.122;8.346;2023-05-25T11:41:05;4.67;;;3.83;;
77384;SDS011;66443;49.122;8.346;2023-05-25T11:43:39;6.80;;;4.33;;
77384;SDS011;66443;49.122;8.346;2023-05-25T11:46:07;5.47;;;4.07;;
77384;SDS011;66443;49.122;8.346;2023-05-25T11:48:33;7.97;;;4.20;;
77384;SDS011;66443;49.122;8.346;2023-05-25T11:51:05;5.47;;;3.87;;
77384;SDS011;66443;49.122;8.346;2023-05-25T11:53:30;5.57;;;3.87;;
77384;SDS011;66443;49.122;8.346;2023-05-25T11:55:56;8.27;;;3.83;;
77384;SDS011;66443;49.122;8.346;2023-05-25T11:58:21;4.73;;;4.17;;
77384;SDS011;66443;49.122;8.346;2023-05-25T12:00:46;5.77;;;4.40;;
77384;SDS011;66443;49.122;8.346;2023-05-25T12:03:30;5.63;;;3.53;;
77384;SDS011;66443;49.122;8.346;2023-05-25T12:05:58;8.05;;;3.80;;
77384;SDS011;66443;49.122;8.346;2023-05-25T12:08:36;6.13;;;4.15;;
77384;SDS011;66443;49.122;8.346;2023-05-25T12:11:01;5.88;;;4.43;;
77384;SDS011;66443;49.122;8.346;2023-05-25T12:13:27;4.72;;;4.03;;
77384;SDS011;66443;49.122;8.346;2023-05-25T12:15:53;4.85;;;3.53;;
77384;SDS011;66443;49.122;8.346;2023-05-25T12:18:19;4.35;;;3.47;;
77384;SDS011;66443;49.122;8.346;2023-05-25T12:20:44;6.68;;;3.90;;
77384;SDS011;66443;49.122;8.346;2023-05-25T12:23:10;5.65;;;4.25;;
77384;SDS011;66443;49.122;8.346;2023-05-25T12:25:36;5.57;;;3.97;;
77384;SDS011;66443;49.122;8.346;2023-05-25T12:28:10;5.53;;;3.72;;
77384;SDS011;66443;49.122;8.346;2023-05-25T12:30:36;7.95;;;4.13;;
77384;SDS011;66443;49.122;8.346;2023-05-25T12:33:01;6.25;;;4.15;;
77384;SDS011;66443;49.122;8.346;2023-05-25T12:35:27;5.50;;;3.72;;
77384;SDS011;66443;49.122;8.346;2023-05-25T12:38:08;5.75;;;4.18;;
77384;SDS011;66443;49.122;8.346;2023-05-25T12:40:33;5.47;;;3.55;;
77384;SDS011;66443;49.122;8.346;2023-05-25T12:42:58;5.68;;;3.55;;
77384;SDS011;66443;49.122;8.346;2023-05-25T12:45:23;7.22;;;3.70;;
77384;SDS011;66443;49.122;8.346;2023-05-25T12:47:48;4.93;;;4.07;;
77384;SDS011;66443;49.122;8.346;2023-05-25T12:50:14;6.15;;;3.65;;
77384;SDS011;66443;49.122;8.346;2023-05-25T12:52:40;4.47;;;3.58;;
77384;SDS011;66443;49.122;8.346;2023-05-25T12:57:49;5.57;;;3.53;;
77384;SDS011;66443;49.122;8.346;2023-05-25T13:00:17;4.22;;;3.83;;
77384;SDS011;66443;49.122;8.346;2023-05-25T13:02:43;5.43;;;3.53;;
77384;SDS011;66443;49.122;8.346;2023-05-25T13:05:18;6.55;;;4.35;;
77384;SDS011;66443;49.122;8.346;2023-05-25T13:07:43;6.47;;;4.20;;
77384;SDS011;66443;49.122;8.346;2023-05-25T13:10:09;8.97;;;3.60;;
77384;SDS011;66443;49.122;8.346;2023-05-25T13:12:35;4.63;;;3.47;;
77384;SDS011;66443;49.122;8.346;2023-05-25T13:15:01;5.03;;;3.63;;
77384;SDS011;66443;49.122;8.346;2023-05-25T13:17:26;6.80;;;3.70;;
77384;SDS011;66443;49.122;8.346;2023-05-25T13:19:51;6.90;;;3.80;;
77384;SDS011;66443;49.122;8.346;2023-05-25T13:22:16;5.57;;;3.93;;
77384;SDS011;66443;49.122;8.346;2023-05-25T13:24:41;4.33;;;3.40;;
77384;SDS011;66443;49.122;8.346;2023-05-25T13:27:06;4.53;;;3.53;;
77384;SDS011;66443;49.122;8.346;2023-05-25T13:29:31;5.63;;;3.63;;
77384;SDS011;66443;49.122;8.346;2023-05-25T13:31:57;5.43;;;3.70;;
77384;SDS011;66443;49.122;8.346;2023-05-25T13:34:22;3.80;;;3.50;;
77384;SDS011;66443;49.122;8.346;2023-05-25T13:36:47;3.80;;;3.50;;
77384;SDS011;66443;49.122;8.346;2023-05-25T13:39:12;5.35;;;3.30;;
77384;SDS011;66443;49.122;8.346;2023-05-25T13:41:38;4.57;;;3.60;;
77384;SDS011;66443;49.122;8.346;2023-05-25T13:44:04;5.32;;;3.60;;
77384;SDS011;66443;49.122;8.346;2023-05-25T13:46:29;3.47;;;3.17;;
77384;SDS011;66443;49.122;8.346;2023-05-25T13:48:54;3.57;;;3.27;;
77384;SDS011;66443;49.122;8.346;2023-05-25T13:51:19;6.23;;;3.23;;
77384;SDS011;66443;49.122;8.346;2023-05-25T13:53:44;3.95;;;3.40;;
77384;SDS011;66443;49.122;8.346;2023-05-25T13:56:10;3.10;;;2.83;;
77384;SDS011;66443;49.122;8.346;2023-05-25T13:58:36;3.38;;;3.08;;
77384;SDS011;66443;49.122;8.346;2023-05-25T14:01:02;3.42;;;3.13;;
77384;SDS011;66443;49.122;8.346;2023-05-25T14:03:27;3.97;;;3.35;;
77384;SDS011;66443;49.122;8.346;2023-05-25T14:05:52;3.60;;;3.27;;
77384;SDS011;66443;49.122;8.346;2023-05-25T14:08:17;3.33;;;3.03;;
77384;SDS011;66443;49.122;8.346;2023-05-25T14:10:43;3.38;;;2.85;;
77384;SDS011;66443;49.122;8.346;2023-05-25T14:13:08;3.50;;;3.10;;
77384;SDS011;66443;49.122;8.346;2023-05-25T14:15:33;4.75;;;3.33;;
77384;SDS011;66443;49.122;8.346;2023-05-25T14:17:58;5.68;;;3.40;;
77384;SDS011;66443;49.122;8.346;2023-05-25T14:20:24;4.90;;;3.22;;
77384;SDS011;66443;49.122;8.346;2023-05-25T14:22:50;4.57;;;3.50;;
77384;SDS011;66443;49.122;8.346;2023-05-25T14:25:15;5.15;;;3.05;;
77384;SDS011;66443;49.122;8.346;2023-05-25T14:27:41;4.13;;;3.10;;
77384;SDS011;66443;49.122;8.346;2023-05-25T14:30:06;5.30;;;3.30;;
77384;SDS011;66443;49.122;8.346;2023-05-25T14:32:31;4.22;;;3.20;;
77384;SDS011;66443;49.122;8.346;2023-05-25T14:34:57;6.85;;;3.55;;
77384;SDS011;66443;49.122;8.346;2023-05-25T14:37:22;3.47;;;2.90;;
77384;SDS011;66443;49.122;8.346;2023-05-25T14:39:47;2.90;;;2.70;;
77384;SDS011;66443;49.122;8.346;2023-05-25T14:42:12;3.20;;;2.90;;
77384;SDS011;66443;49.122;8.346;2023-05-25T14:44:37;3.85;;;2.65;;
77384;SDS011;66443;49.122;8.346;2023-05-25T14:47:03;3.55;;;3.22;;
77384;SDS011;66443;49.122;8.346;2023-05-25T14:49:28;3.70;;;3.15;;
77384;SDS011;66443;49.122;8.346;2023-05-25T14:51:53;4.50;;;2.95;;
77384;SDS011;66443;49.122;8.346;2023-05-25T14:54:19;4.10;;;2.87;;